createdAt,value
2023-02-05T00:01:01.833Z,-1.41
2023-02-05T00:03:30.320Z,-1.40
2023-02-05T00:05:58.432Z,-1.39
2023-02-05T00:08:27.745Z,-1.39
2023-02-05T00:11:00.080Z,-1.39
2023-02-05T00:13:28.646Z,-1.40
2023-02-05T00:15:56.814Z,-1.39
2023-02-05T00:18:24.961Z,-1.39
2023-02-05T00:20:53.102Z,-1.38
2023-02-05T00:23:21.176Z,-1.38
2023-02-05T00:25:49.459Z,-1.39
2023-02-05T00:28:17.556Z,-1.39
2023-02-05T00:30:46.354Z,-1.42
2023-02-05T00:33:14.736Z,-1.43
2023-02-05T00:35:43.740Z,-1.43
2023-02-05T00:38:12.667Z,-1.40
2023-02-05T00:40:41.282Z,-1.37
2023-02-05T00:43:11.184Z,-1.37
2023-02-05T00:45:39.276Z,-1.37
2023-02-05T00:48:08.029Z,-1.35
2023-02-05T00:50:36.423Z,-1.34
2023-02-05T00:53:06.895Z,-1.33
2023-02-05T00:55:36.457Z,-1.34
2023-02-05T00:58:04.601Z,-1.34
2023-02-05T01:00:34.106Z,-1.35
2023-02-05T01:03:02.458Z,-1.36
2023-02-05T01:05:30.931Z,-1.36
2023-02-05T01:07:59.485Z,-1.33
2023-02-05T01:10:27.924Z,-1.31
2023-02-05T01:12:55.985Z,-1.30
2023-02-05T01:15:24.452Z,-1.28
2023-02-05T01:17:52.680Z,-1.27
2023-02-05T01:20:21.929Z,-1.24
2023-02-05T01:22:50.125Z,-1.23
2023-02-05T01:25:19.129Z,-1.23
2023-02-05T01:27:47.246Z,-1.22
2023-02-05T01:30:15.686Z,-1.23
2023-02-05T01:32:43.806Z,-1.22
2023-02-05T01:35:12.142Z,-1.22
2023-02-05T01:37:40.553Z,-1.21
2023-02-05T01:40:12.243Z,-1.23
2023-02-05T01:42:40.551Z,-1.25
2023-02-05T01:45:25.214Z,-1.26
2023-02-05T01:47:54.886Z,-1.25
2023-02-05T01:50:27.121Z,-1.24
2023-02-05T01:52:56.006Z,-1.22
2023-02-05T01:55:24.408Z,-1.21
2023-02-05T01:57:52.709Z,-1.21
2023-02-05T02:00:22.044Z,-1.20
2023-02-05T02:02:50.286Z,-1.19
2023-02-05T02:05:19.444Z,-1.19
2023-02-05T02:07:47.594Z,-1.19
2023-02-05T02:10:15.803Z,-1.20
2023-02-05T02:12:44.140Z,-1.20
2023-02-05T02:15:15.243Z,-1.21
2023-02-05T02:17:45.792Z,-1.19
2023-02-05T02:20:19.297Z,-1.18
2023-02-05T02:23:13.005Z,-1.18
2023-02-05T02:25:59.703Z,-1.17
2023-02-05T02:28:49.099Z,-1.18
2023-02-05T02:31:28.010Z,-1.19
2023-02-05T02:34:33.418Z,-1.19
2023-02-05T02:37:10.110Z,-1.19
2023-02-05T02:40:00.833Z,-1.19
2023-02-05T02:42:33.235Z,-1.19
2023-02-05T02:45:10.679Z,-1.19
2023-02-05T02:47:46.842Z,-1.18
2023-02-05T02:50:22.158Z,-1.17
2023-02-05T02:52:51.166Z,-1.18
2023-02-05T02:55:19.900Z,-1.18
2023-02-05T02:57:49.477Z,-1.18
2023-02-05T03:00:27.868Z,-1.17
2023-02-05T03:03:00.988Z,-1.17
2023-02-05T03:05:29.526Z,-1.17
2023-02-05T03:08:01.134Z,-1.18
2023-02-05T03:10:37.125Z,-1.18
2023-02-05T03:13:11.358Z,-1.17
2023-02-05T03:15:42.152Z,-1.16
2023-02-05T03:18:11.174Z,-1.16
2023-02-05T03:20:46.471Z,-1.16
2023-02-05T03:23:17.152Z,-1.14
2023-02-05T03:25:45.620Z,-1.14
2023-02-05T03:28:14.518Z,-1.17
2023-02-05T03:30:48.339Z,-1.17
2023-02-05T03:33:28.139Z,-1.16
2023-02-05T03:36:08.770Z,-1.18
2023-02-05T03:38:56.366Z,-1.17
2023-02-05T03:41:58.460Z,-1.16
2023-02-05T03:45:22.217Z,-1.18
2023-02-05T03:48:09.705Z,-1.20
2023-02-05T03:51:01.108Z,-1.22
2023-02-05T03:53:44.583Z,-1.24
2023-02-05T03:56:32.621Z,-1.26
2023-02-05T03:59:01.317Z,-1.24
2023-02-05T04:01:29.900Z,-1.22
2023-02-05T04:03:58.241Z,-1.20
2023-02-05T04:06:27.643Z,-1.17
2023-02-05T04:08:55.960Z,-1.17
2023-02-05T04:11:24.294Z,-1.18
2023-02-05T04:13:53.122Z,-1.20
2023-02-05T04:16:21.536Z,-1.20
2023-02-05T04:18:50.153Z,-1.20
2023-02-05T04:21:18.477Z,-1.19
2023-02-05T04:23:46.628Z,-1.17
2023-02-05T04:26:15.227Z,-1.17
2023-02-05T04:28:49.051Z,-1.16
2023-02-05T04:31:17.719Z,-1.15
2023-02-05T04:33:46.365Z,-1.14
2023-02-05T04:36:15.475Z,-1.15
2023-02-05T04:38:43.983Z,-1.14
2023-02-05T04:41:12.240Z,-1.12
2023-02-05T04:43:40.805Z,-1.12
2023-02-05T04:46:09.364Z,-1.12
2023-02-05T04:48:38.609Z,-1.12
2023-02-05T04:51:08.336Z,-1.12
2023-02-05T04:53:37.026Z,-1.11
2023-02-05T04:56:15.741Z,-1.09
2023-02-05T04:58:44.089Z,-1.09
2023-02-05T05:01:17.140Z,-1.08
2023-02-05T05:03:45.587Z,-1.08
2023-02-05T05:06:14.054Z,-1.07
2023-02-05T05:08:42.436Z,-1.08
2023-02-05T05:11:12.630Z,-1.07
2023-02-05T05:13:40.788Z,-1.06
2023-02-05T05:16:09.998Z,-1.04
2023-02-05T05:18:39.232Z,-1.04
2023-02-05T05:21:07.486Z,-1.02
2023-02-05T05:23:36.688Z,-1.04
2023-02-05T05:26:08.920Z,-1.04
2023-02-05T05:28:37.429Z,-1.03
2023-02-05T05:31:08.294Z,-1.06
2023-02-05T05:33:37.920Z,-1.03
2023-02-05T05:36:07.158Z,-1.01
2023-02-05T05:38:36.145Z,-0.98
2023-02-05T05:41:23.390Z,-0.98
2023-02-05T05:43:55.224Z,-0.99
2023-02-05T05:46:25.094Z,-0.99
2023-02-05T05:48:54.976Z,-1.00
2023-02-05T05:51:23.764Z,-0.99
2023-02-05T05:53:52.036Z,-0.98
2023-02-05T05:56:20.424Z,-0.95
2023-02-05T05:58:49.369Z,-0.92
2023-02-05T06:01:19.194Z,-0.90
2023-02-05T06:03:47.433Z,-0.92
2023-02-05T06:06:15.580Z,-0.94
2023-02-05T06:08:45.105Z,-0.93
2023-02-05T06:11:13.453Z,-0.88
2023-02-05T06:13:42.336Z,-0.84
2023-02-05T06:16:14.103Z,-0.79
2023-02-05T06:18:50.660Z,-0.74
2023-02-05T06:21:22.913Z,-0.70
2023-02-05T06:26:43.570Z,-0.68
2023-02-05T06:29:13.724Z,-0.68
2023-02-05T06:31:47.247Z,-0.71
2023-02-05T06:34:18.992Z,-0.71
2023-02-05T06:36:53.123Z,-0.68
2023-02-05T06:39:33.642Z,-0.65
2023-02-05T06:42:08.581Z,-0.61
2023-02-05T06:44:48.986Z,-0.57
2023-02-05T06:47:33.969Z,-0.56
2023-02-05T06:50:20.393Z,-0.55
2023-02-05T06:52:51.979Z,-0.55
2023-02-05T06:55:31.724Z,-0.56
2023-02-05T06:58:05.295Z,-0.54
2023-02-05T07:00:40.851Z,-0.51
2023-02-05T07:03:09.262Z,-0.48
2023-02-05T07:05:40.041Z,-0.45
2023-02-05T07:08:12.962Z,-0.44
2023-02-05T07:13:39.917Z,-0.39
2023-02-05T07:16:19.750Z,-0.35
2023-02-05T07:18:49.474Z,-0.33
2023-02-05T07:21:29.853Z,-0.31
2023-02-05T07:24:03.897Z,-0.28
2023-02-05T07:26:41.440Z,-0.27
2023-02-05T07:29:14.712Z,-0.26
2023-02-05T07:31:43.076Z,-0.26
2023-02-05T07:34:13.546Z,-0.26
2023-02-05T07:36:53.154Z,-0.26
2023-02-05T07:39:25.475Z,-0.23
2023-02-05T07:41:54.114Z,-0.19
2023-02-05T07:44:34.779Z,-0.16
2023-02-05T07:47:02.920Z,-0.09
2023-02-05T07:49:31.226Z,-0.05
2023-02-05T07:52:01.458Z,-0.02
2023-02-05T07:54:29.901Z,0.01
2023-02-05T07:57:00.257Z,0.07
2023-02-05T07:59:28.470Z,0.11
2023-02-05T08:01:56.545Z,0.18
2023-02-05T08:04:24.806Z,0.24
2023-02-05T08:06:53.213Z,0.28
2023-02-05T08:09:21.334Z,0.28
2023-02-05T08:11:49.410Z,0.25
2023-02-05T08:14:17.978Z,0.29
2023-02-05T08:16:46.128Z,0.34
2023-02-05T08:19:18.070Z,0.41
2023-02-05T08:21:46.232Z,0.49
2023-02-05T08:24:14.536Z,0.52
2023-02-05T08:26:43.133Z,0.45
2023-02-05T08:29:11.829Z,0.48
2023-02-05T08:31:40.326Z,0.56
2023-02-05T08:34:08.384Z,0.64
2023-02-05T08:36:37.702Z,0.75
2023-02-05T08:39:05.870Z,0.88
2023-02-05T08:41:36.999Z,0.94
2023-02-05T08:44:05.456Z,0.98
2023-02-05T08:46:48.746Z,1.02
2023-02-05T08:49:17.731Z,1.00
2023-02-05T08:51:46.240Z,0.96
2023-02-05T08:54:15.376Z,0.87
2023-02-05T08:56:44.823Z,0.71
2023-02-05T08:59:12.937Z,0.56
2023-02-05T09:01:41.283Z,0.45
2023-02-05T09:04:16.498Z,0.39
2023-02-05T09:06:44.898Z,0.39
2023-02-05T09:09:13.337Z,0.39
2023-02-05T09:11:41.910Z,0.42
2023-02-05T09:14:10.282Z,0.46
2023-02-05T09:16:39.076Z,0.51
2023-02-05T09:19:07.459Z,0.58
2023-02-05T09:21:35.614Z,0.60
2023-02-05T09:24:04.182Z,0.67
2023-02-05T09:26:34.258Z,0.72
2023-02-05T09:29:03.173Z,0.81
2023-02-05T09:31:31.704Z,0.89
2023-02-05T09:34:02.492Z,0.95
2023-02-05T09:36:31.072Z,0.97
2023-02-05T09:39:13.397Z,0.96
2023-02-05T09:41:57.386Z,0.93
2023-02-05T09:44:25.520Z,0.98
2023-02-05T09:47:02.918Z,1.05
2023-02-05T09:49:52.134Z,1.04
2023-02-05T09:52:22.349Z,1.01
2023-02-05T09:55:19.476Z,1.01
2023-02-05T09:57:48.320Z,0.92
2023-02-05T10:00:28.831Z,0.82
2023-02-05T10:03:25.467Z,0.78
2023-02-05T10:06:12.349Z,0.69
2023-02-05T10:08:46.744Z,0.68
2023-02-05T10:11:27.370Z,0.71
2023-02-05T10:14:07.663Z,0.71
2023-02-05T10:16:48.918Z,0.75
2023-02-05T10:19:37.790Z,0.77
2023-02-05T10:22:18.442Z,0.77
2023-02-05T10:25:11.382Z,0.71
2023-02-05T10:27:49.203Z,0.71
2023-02-05T10:30:30.929Z,0.64
2023-02-05T10:33:18.974Z,0.64
2023-02-05T10:36:01.662Z,0.69
2023-02-05T10:38:32.156Z,0.72
2023-02-05T10:41:28.770Z,0.65
2023-02-05T10:44:03.958Z,0.63
2023-02-05T10:46:37.960Z,0.65
2023-02-05T10:49:39.027Z,0.73
2023-02-05T10:52:10.903Z,0.74
2023-02-05T10:54:39.400Z,0.66
2023-02-05T10:57:30.401Z,0.69
2023-02-05T11:00:14.377Z,0.66
2023-02-05T11:02:46.481Z,0.66
2023-02-05T11:05:37.181Z,0.71
2023-02-05T11:08:05.572Z,0.67
2023-02-05T11:10:34.993Z,0.69
2023-02-05T11:13:19.265Z,0.73
2023-02-05T11:16:03.514Z,0.80
2023-02-05T11:18:59.659Z,0.82
2023-02-05T11:21:50.128Z,0.80
2023-02-05T11:24:28.909Z,0.80
2023-02-05T11:27:15.577Z,0.86
2023-02-05T11:29:43.856Z,0.90
2023-02-05T11:32:36.357Z,0.90
2023-02-05T11:35:18.420Z,0.86
2023-02-05T11:37:48.768Z,0.78
2023-02-05T11:40:22.643Z,0.81
2023-02-05T11:43:01.038Z,0.82
2023-02-05T11:45:29.979Z,0.89
2023-02-05T11:48:01.299Z,0.95
2023-02-05T11:50:30.135Z,0.98
2023-02-05T11:53:08.449Z,0.98
2023-02-05T11:55:36.572Z,0.96
2023-02-05T11:58:06.517Z,0.93
2023-02-05T12:00:35.595Z,0.94
2023-02-05T12:03:16.476Z,1.00
2023-02-05T12:05:49.922Z,1.09
2023-02-05T12:08:27.286Z,1.11
2023-02-05T12:11:08.742Z,1.05
2023-02-05T12:13:55.846Z,0.98
2023-02-05T12:16:41.819Z,0.94
2023-02-05T12:19:24.796Z,0.99
2023-02-05T12:22:27.010Z,1.01
2023-02-05T12:25:17.140Z,0.97
2023-02-05T12:28:01.637Z,1.01
2023-02-05T12:30:45.070Z,1.08
2023-02-05T12:33:28.972Z,1.09
2023-02-05T12:36:15.414Z,1.10
2023-02-05T12:39:13.421Z,1.14
2023-02-05T12:41:45.200Z,1.16
2023-02-05T12:44:52.206Z,1.10
2023-02-05T12:48:04.644Z,1.07
2023-02-05T12:50:59.041Z,1.03
2023-02-05T12:53:49.032Z,0.95
2023-02-05T12:56:49.886Z,0.90
2023-02-05T12:59:24.192Z,0.80
2023-02-05T13:01:59.049Z,0.75
2023-02-05T13:04:35.069Z,0.70
2023-02-05T13:07:12.075Z,0.68
2023-02-05T13:09:43.299Z,0.69
2023-02-05T13:12:14.176Z,0.68
2023-02-05T13:14:45.241Z,0.64
2023-02-05T13:17:20.497Z,0.58
2023-02-05T13:19:55.997Z,0.55
2023-02-05T13:22:48.975Z,0.59
2023-02-05T13:25:44.824Z,0.66
2023-02-05T13:28:40.973Z,0.72
2023-02-05T13:31:21.193Z,0.76
2023-02-05T13:33:49.743Z,0.81
2023-02-05T13:36:24.271Z,0.81
2023-02-05T13:39:16.264Z,0.77
2023-02-05T13:42:03.308Z,0.79
2023-02-05T13:45:05.768Z,0.83
2023-02-05T13:47:56.885Z,0.88
2023-02-05T13:50:52.891Z,0.86
2023-02-05T13:53:31.276Z,0.85
2023-02-05T13:56:14.980Z,0.85
2023-02-05T13:58:49.334Z,0.77
2023-02-05T14:01:24.606Z,0.73
2023-02-05T14:03:55.967Z,0.69
2023-02-05T14:06:27.762Z,0.68
2023-02-05T14:09:08.151Z,0.63
2023-02-05T14:11:51.823Z,0.60
2023-02-05T14:14:27.483Z,0.57
2023-02-05T14:16:57.338Z,0.60
2023-02-05T14:19:31.808Z,0.62
2023-02-05T14:22:07.353Z,0.65
2023-02-05T14:24:44.099Z,0.67
2023-02-05T14:27:30.674Z,0.64
2023-02-05T14:29:59.702Z,0.60
2023-02-05T14:32:29.542Z,0.57
2023-02-05T14:35:38.270Z,0.50
2023-02-05T14:38:26.206Z,0.35
2023-02-05T14:41:03.509Z,0.24
2023-02-05T14:43:36.244Z,0.18
2023-02-05T14:46:06.684Z,0.16
2023-02-05T14:48:36.931Z,0.11
2023-02-05T14:51:26.533Z,0.09
2023-02-05T14:54:18.693Z,0.06
2023-02-05T14:56:48.945Z,0.02
2023-02-05T14:59:21.636Z,0.02
2023-02-05T15:01:54.446Z,0.03
2023-02-05T15:04:25.370Z,0.05
2023-02-05T15:06:53.512Z,0.04
2023-02-05T15:09:26.268Z,0.02
2023-02-05T15:12:09.208Z,-0.01
2023-02-05T15:14:44.023Z,-0.04
2023-02-05T15:17:14.294Z,-0.03
2023-02-05T15:19:44.853Z,-0.07
2023-02-05T15:22:24.356Z,-0.07
2023-02-05T15:24:53.782Z,-0.04
2023-02-05T15:27:24.748Z,-0.05
2023-02-05T15:29:57.227Z,-0.04
2023-02-05T15:32:31.545Z,-0.03
2023-02-05T15:35:13.279Z,-0.04
2023-02-05T15:37:56.204Z,-0.05
2023-02-05T15:40:27.181Z,-0.06
2023-02-05T15:43:00.240Z,-0.08
2023-02-05T15:45:29.777Z,-0.08
2023-02-05T15:47:58.014Z,-0.09
2023-02-05T15:50:26.936Z,-0.10
2023-02-05T15:52:55.061Z,-0.08
2023-02-05T15:55:24.806Z,-0.05
2023-02-05T15:57:52.921Z,-0.02
2023-02-05T16:00:23.734Z,0.00
2023-02-05T16:03:00.218Z,0.03
2023-02-05T16:05:29.825Z,0.07
2023-02-05T16:08:00.835Z,0.05
2023-02-05T16:10:30.692Z,0.04
2023-02-05T16:13:01.808Z,0.03
2023-02-05T16:16:15.484Z,0.01
2023-02-05T16:18:54.551Z,-0.03
2023-02-05T16:21:22.859Z,-0.03
2023-02-05T16:23:57.167Z,-0.02
2023-02-05T16:26:31.161Z,-0.01
2023-02-05T16:29:11.703Z,-0.01
2023-02-05T16:31:57.837Z,0.03
2023-02-05T16:34:26.222Z,0.07
2023-02-05T16:36:58.152Z,0.08
2023-02-05T16:39:28.904Z,0.08
2023-02-05T16:42:08.574Z,0.12
2023-02-05T16:44:38.806Z,0.13
2023-02-05T16:47:15.247Z,0.14
2023-02-05T16:49:44.741Z,0.12
2023-02-05T16:52:33.434Z,0.14
2023-02-05T16:55:24.903Z,0.20
2023-02-05T16:57:53.863Z,0.21
2023-02-05T17:00:25.299Z,0.19
2023-02-05T17:02:55.813Z,0.17
2023-02-05T17:05:25.394Z,0.18
2023-02-05T17:08:01.014Z,0.16
2023-02-05T17:10:29.414Z,0.14
2023-02-05T17:13:03.426Z,0.13
2023-02-05T17:15:33.755Z,0.08
2023-02-05T17:18:20.576Z,0.08
2023-02-05T17:20:48.944Z,0.07
2023-02-05T17:23:17.829Z,0.04
2023-02-05T17:25:55.678Z,0.04
2023-02-05T17:28:26.109Z,0.04
2023-02-05T17:30:57.790Z,0.02
2023-02-05T17:33:28.076Z,-0.01
2023-02-05T17:35:56.581Z,0.00
2023-02-05T17:38:24.815Z,0.04
2023-02-05T17:41:12.876Z,0.10
2023-02-05T17:43:41.430Z,0.14
2023-02-05T17:46:14.375Z,0.16
2023-02-05T17:48:44.766Z,0.17
2023-02-05T17:51:20.586Z,0.24
2023-02-05T17:53:49.566Z,0.26
2023-02-05T17:56:19.304Z,0.25
2023-02-05T17:58:51.104Z,0.24
2023-02-05T18:01:19.401Z,0.26
2023-02-05T18:03:47.931Z,0.27
2023-02-05T18:06:17.352Z,0.28
2023-02-05T18:08:45.412Z,0.22
2023-02-05T18:11:13.433Z,0.16
2023-02-05T18:13:42.282Z,0.16
2023-02-05T18:16:12.419Z,0.19
2023-02-05T18:18:41.013Z,0.17
2023-02-05T18:21:09.424Z,0.21
2023-02-05T18:23:41.388Z,0.24
2023-02-05T18:26:10.028Z,0.19
2023-02-05T18:28:38.593Z,0.19
2023-02-05T18:31:07.797Z,0.26
2023-02-05T18:33:37.149Z,0.25
2023-02-05T18:36:09.455Z,0.27
2023-02-05T18:38:38.281Z,0.32
2023-02-05T18:41:12.519Z,0.34
2023-02-05T18:43:40.878Z,0.39
2023-02-05T18:46:09.624Z,0.41
2023-02-05T18:48:38.349Z,0.38
2023-02-05T18:51:11.034Z,0.37
2023-02-05T18:53:43.440Z,0.36
2023-02-05T18:56:25.265Z,0.39
2023-02-05T18:59:04.194Z,0.41
2023-02-05T19:01:36.209Z,0.45
2023-02-05T19:04:13.154Z,0.44
2023-02-05T19:06:42.931Z,0.40
2023-02-05T19:09:11.385Z,0.35
2023-02-05T19:11:41.573Z,0.32
2023-02-05T19:14:13.960Z,0.31
2023-02-05T19:16:42.847Z,0.32
2023-02-05T19:19:15.644Z,0.35
2023-02-05T19:21:44.980Z,0.37
2023-02-05T19:24:13.778Z,0.40
2023-02-05T19:26:44.194Z,0.41
2023-02-05T19:29:14.277Z,0.39
2023-02-05T19:31:42.556Z,0.37
2023-02-05T19:34:11.790Z,0.31
2023-02-05T19:36:40.954Z,0.32
2023-02-05T19:39:10.791Z,0.33
2023-02-05T19:41:38.863Z,0.37
2023-02-05T19:44:08.074Z,0.38
2023-02-05T19:46:38.249Z,0.41
2023-02-05T19:49:11.662Z,0.43
2023-02-05T19:51:42.109Z,0.43
2023-02-05T19:54:16.407Z,0.43
2023-02-05T19:56:45.066Z,0.47
2023-02-05T19:59:18.477Z,0.50
2023-02-05T20:01:47.824Z,0.51
2023-02-05T20:04:18.335Z,0.49
2023-02-05T20:06:46.615Z,0.49
2023-02-05T20:09:18.007Z,0.49
2023-02-05T20:11:47.902Z,0.50
2023-02-05T20:14:20.213Z,0.49
2023-02-05T20:16:50.468Z,0.47
2023-02-05T20:19:19.846Z,0.48
2023-02-05T20:21:48.174Z,0.50
2023-02-05T20:24:16.631Z,0.47
2023-02-05T20:26:47.939Z,0.47
2023-02-05T20:29:35.290Z,0.48
2023-02-05T20:32:03.780Z,0.46
2023-02-05T20:34:35.530Z,0.43
2023-02-05T20:37:07.464Z,0.40
2023-02-05T20:39:39.902Z,0.40
2023-02-05T20:42:10.559Z,0.44
2023-02-05T20:44:38.837Z,0.46
2023-02-05T20:47:07.884Z,0.45
2023-02-05T20:49:38.025Z,0.43
2023-02-05T20:52:06.923Z,0.41
2023-02-05T20:54:37.061Z,0.38
2023-02-05T20:57:05.772Z,0.36
2023-02-05T20:59:36.681Z,0.41
2023-02-05T21:02:05.041Z,0.42
2023-02-05T21:04:34.091Z,0.44
2023-02-05T21:07:02.289Z,0.41
2023-02-05T21:09:32.055Z,0.32
2023-02-05T21:12:00.326Z,0.32
2023-02-05T21:14:30.732Z,0.29
2023-02-05T21:16:59.644Z,0.28
2023-02-05T21:19:28.747Z,0.32
2023-02-05T21:21:57.208Z,0.35
2023-02-05T21:24:25.244Z,0.36
2023-02-05T21:26:53.448Z,0.37
2023-02-05T21:29:21.616Z,0.34
2023-02-05T21:31:53.197Z,0.31
2023-02-05T21:34:23.355Z,0.24
2023-02-05T21:36:51.746Z,0.20
2023-02-05T21:39:22.944Z,0.22
2023-02-05T21:41:51.405Z,0.28
2023-02-05T21:44:20.171Z,0.31
2023-02-05T21:46:48.790Z,0.32
2023-02-05T21:49:17.045Z,0.31
2023-02-05T21:51:48.143Z,0.31
2023-02-05T21:54:16.369Z,0.32
2023-02-05T21:56:44.728Z,0.31
2023-02-05T21:59:13.051Z,0.27
2023-02-05T22:01:42.024Z,0.26
2023-02-05T22:04:15.058Z,0.19
2023-02-05T22:06:43.659Z,0.16
2023-02-05T22:09:15.812Z,0.18
2023-02-05T22:11:44.831Z,0.23
2023-02-05T22:14:13.114Z,0.25
2023-02-05T22:16:42.115Z,0.22
2023-02-05T22:19:19.614Z,0.22
2023-02-05T22:21:48.484Z,0.24
2023-02-05T22:24:17.907Z,0.26
2023-02-05T22:26:46.665Z,0.26
2023-02-05T22:29:16.773Z,0.27
2023-02-05T22:31:45.184Z,0.30
2023-02-05T22:34:13.587Z,0.28
2023-02-05T22:36:41.879Z,0.26
2023-02-05T22:39:10.092Z,0.27
2023-02-05T22:41:40.026Z,0.22
2023-02-05T22:44:09.231Z,0.11
2023-02-05T22:46:42.548Z,0.09
2023-02-05T22:49:11.397Z,0.13
2023-02-05T22:51:40.493Z,0.16
2023-02-05T22:54:10.586Z,0.20
2023-02-05T22:56:39.381Z,0.22
2023-02-05T22:59:08.178Z,0.20
2023-02-05T23:01:38.048Z,0.15
2023-02-05T23:04:06.916Z,0.08
2023-02-05T23:06:38.896Z,0.02
2023-02-05T23:09:09.248Z,0.04
2023-02-05T23:11:39.739Z,0.10
2023-02-05T23:14:08.350Z,0.14
2023-02-05T23:16:39.540Z,0.19
2023-02-05T23:19:10.009Z,0.20
2023-02-05T23:21:38.583Z,0.20
2023-02-05T23:24:08.113Z,0.17
2023-02-05T23:26:42.483Z,0.17
2023-02-05T23:29:11.791Z,0.19
2023-02-05T23:31:41.271Z,0.18
2023-02-05T23:34:09.460Z,0.13
2023-02-05T23:36:38.135Z,0.12
2023-02-05T23:39:06.239Z,0.09
2023-02-05T23:41:37.439Z,0.08
2023-02-05T23:44:14.213Z,0.07
2023-02-05T23:46:43.136Z,0.03
2023-02-05T23:49:12.094Z,0.00
2023-02-05T23:51:40.378Z,0.01
2023-02-05T23:54:09.926Z,-0.01
2023-02-05T23:56:40.109Z,-0.02
2023-02-05T23:59:08.777Z,-0.03
